createdAt,value
2023-01-12T00:00:01.145Z,5.50
2023-01-12T00:02:31.221Z,5.50
2023-01-12T00:05:01.113Z,5.50
2023-01-12T00:07:33.607Z,5.50
2023-01-12T00:10:02.794Z,5.30
2023-01-12T00:12:32.019Z,5.40
2023-01-12T00:15:01.651Z,5.40
2023-01-12T00:17:30.898Z,5.40
2023-01-12T00:20:00.323Z,5.40
2023-01-12T00:22:30.921Z,5.40
2023-01-12T00:25:00.046Z,5.40
2023-01-12T00:27:29.242Z,5.30
2023-01-12T00:29:59.024Z,5.20
2023-01-12T00:32:28.641Z,5.30
2023-01-12T00:34:57.828Z,5.30
2023-01-12T00:37:28.315Z,5.30
2023-01-12T00:40:02.436Z,5.30
2023-01-12T00:42:50.229Z,5.30
2023-01-12T00:45:25.622Z,5.40
2023-01-12T00:47:55.069Z,5.40
2023-01-12T00:50:24.564Z,5.40
2023-01-12T00:52:53.822Z,5.40
2023-01-12T00:55:24.762Z,5.40
2023-01-12T00:57:54.193Z,5.40
2023-01-12T01:00:23.631Z,5.40
2023-01-12T01:02:53.166Z,5.40
2023-01-12T01:05:22.498Z,5.40
2023-01-12T01:07:51.882Z,5.40
2023-01-12T01:10:21.332Z,5.40
2023-01-12T01:12:52.225Z,5.40
2023-01-12T01:15:21.423Z,5.30
2023-01-12T01:17:50.683Z,5.40
2023-01-12T01:20:20.082Z,5.40
2023-01-12T01:22:49.209Z,5.30
2023-01-12T01:25:18.889Z,5.40
2023-01-12T01:27:47.954Z,5.40
2023-01-12T01:30:18.862Z,5.40
2023-01-12T01:32:48.153Z,5.40
2023-01-12T01:35:17.585Z,5.40
2023-01-12T01:37:46.918Z,5.40
2023-01-12T01:40:16.130Z,5.40
2023-01-12T01:42:45.298Z,5.40
2023-01-12T01:45:17.008Z,5.40
2023-01-12T01:47:50.852Z,5.50
2023-01-12T01:50:22.055Z,5.50
2023-01-12T01:52:54.906Z,5.50
2023-01-12T01:55:26.598Z,5.50
2023-01-12T01:57:59.013Z,5.50
2023-01-12T02:00:28.394Z,5.50
2023-01-12T02:03:01.321Z,5.60
2023-01-12T02:05:31.475Z,5.50
2023-01-12T02:08:06.998Z,5.50
2023-01-12T02:10:36.497Z,5.60
2023-01-12T02:13:22.932Z,5.60
2023-01-12T02:16:21.535Z,5.60
2023-01-12T02:19:21.583Z,5.60
2023-01-12T02:22:22.353Z,5.60
2023-01-12T02:25:11.403Z,5.60
2023-01-12T02:28:18.305Z,5.50
2023-01-12T02:31:08.900Z,5.60
2023-01-12T02:33:48.455Z,5.60
2023-01-12T02:36:26.328Z,5.60
2023-01-12T02:39:03.709Z,5.60
2023-01-12T02:41:55.036Z,5.70
2023-01-12T02:44:31.663Z,5.70
2023-01-12T02:47:06.502Z,5.80
2023-01-12T02:49:43.003Z,5.80
2023-01-12T02:52:15.933Z,5.80
2023-01-12T02:54:49.835Z,5.70
2023-01-12T02:57:21.223Z,5.80
2023-01-12T02:59:52.043Z,5.80
2023-01-12T03:02:25.559Z,5.90
2023-01-12T03:04:55.461Z,5.90
2023-01-12T03:07:40.483Z,5.90
2023-01-12T03:10:38.629Z,5.90
2023-01-12T03:13:12.363Z,5.90
2023-01-12T03:15:47.092Z,5.90
2023-01-12T03:18:21.778Z,5.90
2023-01-12T03:20:55.079Z,5.90
2023-01-12T03:23:30.959Z,6.00
2023-01-12T03:26:02.405Z,6.00
2023-01-12T03:28:37.397Z,6.00
2023-01-12T03:31:11.350Z,6.00
2023-01-12T03:33:44.149Z,6.10
2023-01-12T03:36:21.775Z,6.10
2023-01-12T03:39:03.927Z,6.10
2023-01-12T03:41:41.818Z,6.10
2023-01-12T03:44:18.937Z,6.10
2023-01-12T03:46:55.935Z,6.10
2023-01-12T03:49:33.425Z,6.10
2023-01-12T03:52:04.682Z,6.10
2023-01-12T03:54:36.574Z,6.10
2023-01-12T03:57:06.144Z,6.20
2023-01-12T03:59:36.313Z,6.20
2023-01-12T04:02:05.660Z,6.10
2023-01-12T04:04:36.266Z,6.20
2023-01-12T04:07:05.765Z,6.20
2023-01-12T04:09:34.910Z,6.20
2023-01-12T04:12:12.882Z,6.30
2023-01-12T04:14:46.869Z,6.30
2023-01-12T04:17:17.643Z,6.30
2023-01-12T04:19:49.024Z,6.40
2023-01-12T04:22:35.589Z,6.40
2023-01-12T04:25:07.144Z,6.40
2023-01-12T04:27:37.853Z,6.30
2023-01-12T04:30:07.966Z,6.30
2023-01-12T04:32:37.196Z,6.40
2023-01-12T04:35:08.736Z,6.40
2023-01-12T04:37:37.919Z,6.40
2023-01-12T04:40:08.407Z,6.50
2023-01-12T04:42:54.819Z,6.50
2023-01-12T04:45:23.961Z,6.60
2023-01-12T04:47:52.993Z,6.60
2023-01-12T04:50:23.583Z,6.70
2023-01-12T04:52:52.733Z,6.70
2023-01-12T04:55:22.090Z,6.80
2023-01-12T04:57:51.241Z,6.80
2023-01-12T05:00:21.409Z,6.80
2023-01-12T05:02:50.486Z,6.90
2023-01-12T05:05:19.557Z,6.90
2023-01-12T05:08:04.160Z,6.90
2023-01-12T05:10:33.285Z,6.90
2023-01-12T05:13:02.468Z,6.90
2023-01-12T05:15:31.619Z,7.00
2023-01-12T05:18:00.947Z,7.00
2023-01-12T05:20:30.018Z,7.00
2023-01-12T05:23:00.523Z,7.10
2023-01-12T05:25:29.707Z,7.10
2023-01-12T05:27:59.107Z,7.20
2023-01-12T05:30:31.449Z,7.30
2023-01-12T05:33:00.893Z,7.40
2023-01-12T05:35:29.969Z,7.40
2023-01-12T05:38:00.694Z,7.40
2023-01-12T05:40:29.843Z,7.40
2023-01-12T05:43:16.374Z,7.40
2023-01-12T05:45:45.485Z,7.40
2023-01-12T05:48:14.609Z,7.40
2023-01-12T05:50:43.834Z,7.40
2023-01-12T05:53:14.383Z,7.40
2023-01-12T05:55:43.531Z,7.50
2023-01-12T05:58:12.653Z,7.50
2023-01-12T06:00:41.707Z,7.50
2023-01-12T06:03:10.841Z,7.60
2023-01-12T06:05:39.947Z,7.60
2023-01-12T06:08:09.212Z,7.60
2023-01-12T06:10:40.966Z,7.60
2023-01-12T06:13:28.346Z,7.70
2023-01-12T06:16:05.374Z,7.70
2023-01-12T06:18:36.749Z,7.70
2023-01-12T06:21:07.144Z,7.60
2023-01-12T06:23:36.949Z,7.60
2023-01-12T06:26:10.694Z,7.70
2023-01-12T06:28:42.879Z,7.70
2023-01-12T06:31:13.617Z,7.70
2023-01-12T06:33:44.063Z,7.70
2023-01-12T06:36:13.920Z,7.70
2023-01-12T06:38:43.833Z,7.70
2023-01-12T06:41:29.013Z,7.70
2023-01-12T06:43:58.266Z,7.90
2023-01-12T06:46:27.864Z,7.80
2023-01-12T06:48:58.458Z,7.80
2023-01-12T06:51:28.267Z,7.80
2023-01-12T06:53:57.443Z,7.80
2023-01-12T06:56:28.031Z,7.80
2023-01-12T06:58:57.208Z,7.90
2023-01-12T07:01:27.560Z,7.90
2023-01-12T07:03:56.782Z,7.90
2023-01-12T07:06:26.006Z,7.90
2023-01-12T07:08:55.248Z,7.90
2023-01-12T07:11:24.446Z,8.00
2023-01-12T07:13:56.403Z,7.90
2023-01-12T07:16:25.593Z,7.90
2023-01-12T07:18:54.848Z,7.90
2023-01-12T07:21:24.145Z,7.90
2023-01-12T07:23:53.337Z,8.00
2023-01-12T07:26:22.475Z,7.90
2023-01-12T07:28:51.624Z,8.00
2023-01-12T07:31:22.812Z,8.00
2023-01-12T07:33:54.109Z,8.00
2023-01-12T07:36:25.914Z,8.00
2023-01-12T07:38:55.119Z,8.10
2023-01-12T07:41:40.696Z,8.10
2023-01-12T07:44:11.340Z,8.10
2023-01-12T07:46:42.017Z,8.10
2023-01-12T07:49:11.385Z,8.20
2023-01-12T07:51:40.949Z,8.20
2023-01-12T07:54:11.072Z,8.30
2023-01-12T07:56:40.306Z,8.30
2023-01-12T07:59:09.450Z,8.30
2023-01-12T08:01:39.686Z,8.40
2023-01-12T08:04:10.463Z,8.40
2023-01-12T08:06:39.647Z,8.40
2023-01-12T08:09:08.897Z,8.50
2023-01-12T08:11:39.463Z,8.40
2023-01-12T08:14:08.695Z,8.40
2023-01-12T08:16:42.308Z,8.50
2023-01-12T08:19:19.322Z,8.50
2023-01-12T08:21:54.437Z,8.50
2023-01-12T08:24:28.175Z,8.50
2023-01-12T08:27:01.751Z,8.50
2023-01-12T08:29:36.480Z,8.50
2023-01-12T08:34:46.147Z,8.50
2023-01-12T08:37:17.904Z,8.50
2023-01-12T08:39:48.577Z,8.50
2023-01-12T08:42:18.251Z,8.50
2023-01-12T08:44:47.697Z,8.50
2023-01-12T08:47:19.528Z,8.60
2023-01-12T08:49:50.781Z,8.50
2023-01-12T08:52:19.997Z,8.60
2023-01-12T08:54:49.212Z,8.60
2023-01-12T08:57:19.465Z,8.60
2023-01-12T08:59:48.743Z,8.80
2023-01-12T09:02:18.140Z,9.10
2023-01-12T09:04:47.352Z,9.50
2023-01-12T09:07:19.996Z,9.80
2023-01-12T09:09:49.236Z,10.10
2023-01-12T09:12:18.466Z,10.60
2023-01-12T09:14:47.823Z,10.90
2023-01-12T09:17:17.092Z,11.30
2023-01-12T09:19:50.044Z,11.50
2023-01-12T09:22:20.679Z,11.70
2023-01-12T09:24:49.747Z,11.90
2023-01-12T09:27:19.253Z,12.10
2023-01-12T09:29:48.548Z,12.20
2023-01-12T09:32:22.962Z,12.40
2023-01-12T09:34:54.954Z,12.50
2023-01-12T09:37:25.560Z,12.40
2023-01-12T09:39:54.675Z,12.30
2023-01-12T09:42:42.042Z,12.20
2023-01-12T09:45:37.112Z,12.30
2023-01-12T09:48:08.065Z,12.30
2023-01-12T09:50:40.440Z,12.30
2023-01-12T09:53:19.081Z,12.20
2023-01-12T09:55:57.989Z,12.00
2023-01-12T09:58:36.972Z,12.00
2023-01-12T10:01:20.479Z,12.10
2023-01-12T10:03:58.894Z,12.10
2023-01-12T10:06:28.159Z,12.00
2023-01-12T10:08:59.858Z,12.00
2023-01-12T10:11:36.821Z,12.00
2023-01-12T10:14:19.709Z,12.00
2023-01-12T10:16:59.988Z,11.90
2023-01-12T10:19:34.186Z,11.90
2023-01-12T10:22:11.760Z,11.70
2023-01-12T10:24:43.697Z,11.90
2023-01-12T10:27:16.670Z,11.80
2023-01-12T10:29:45.915Z,11.80
2023-01-12T10:32:15.133Z,11.80
2023-01-12T10:34:51.864Z,11.80
2023-01-12T10:37:21.338Z,11.80
2023-01-12T10:39:54.240Z,11.70
2023-01-12T10:42:42.020Z,11.60
2023-01-12T10:45:17.724Z,11.50
2023-01-12T10:47:48.211Z,11.50
2023-01-12T10:50:27.667Z,11.50
2023-01-12T10:53:01.175Z,11.60
2023-01-12T10:55:35.209Z,11.60
2023-01-12T10:58:04.462Z,11.60
2023-01-12T11:00:34.450Z,11.60
2023-01-12T11:03:03.737Z,11.50
2023-01-12T11:05:37.054Z,11.30
2023-01-12T11:08:23.779Z,11.20
2023-01-12T11:10:54.737Z,11.20
2023-01-12T11:13:27.749Z,11.20
2023-01-12T11:16:03.794Z,11.10
2023-01-12T11:18:42.471Z,11.10
2023-01-12T11:21:14.455Z,11.10
2023-01-12T11:23:54.577Z,11.10
2023-01-12T11:26:31.003Z,11.10
2023-01-12T11:29:18.786Z,11.10
2023-01-12T11:31:50.116Z,11.20
2023-01-12T11:34:23.657Z,11.20
2023-01-12T11:36:56.304Z,11.20
2023-01-12T11:39:27.569Z,11.20
2023-01-12T11:42:18.157Z,11.00
2023-01-12T11:44:55.229Z,10.90
2023-01-12T11:47:28.678Z,10.90
2023-01-12T11:50:04.232Z,10.80
2023-01-12T11:52:34.020Z,10.90
2023-01-12T11:55:03.930Z,10.90
2023-01-12T11:57:54.175Z,10.80
2023-01-12T12:00:46.469Z,10.70
2023-01-12T12:03:30.218Z,10.60
2023-01-12T12:06:06.229Z,10.60
2023-01-12T12:08:50.692Z,10.60
2023-01-12T12:11:30.804Z,10.50
2023-01-12T12:14:16.979Z,10.50
2023-01-12T12:16:54.036Z,10.60
2023-01-12T12:19:43.836Z,10.50
2023-01-12T12:22:26.659Z,10.40
2023-01-12T12:25:07.023Z,10.40
2023-01-12T12:27:47.799Z,10.40
2023-01-12T12:30:44.562Z,10.50
2023-01-12T12:33:23.381Z,10.50
2023-01-12T12:36:09.374Z,10.60
2023-01-12T12:39:07.053Z,10.70
2023-01-12T12:41:58.528Z,10.70
2023-01-12T12:45:01.449Z,10.70
2023-01-12T12:47:58.787Z,10.50
2023-01-12T12:53:55.954Z,10.40
2023-01-12T12:56:26.876Z,10.40
2023-01-12T12:58:57.279Z,10.40
2023-01-12T13:01:57.768Z,10.40
2023-01-12T13:05:06.764Z,10.40
2023-01-12T13:07:43.004Z,10.40
2023-01-12T13:10:30.955Z,10.30
2023-01-12T13:13:05.646Z,10.30
2023-01-12T13:15:38.035Z,10.20
2023-01-12T13:18:28.101Z,10.20
2023-01-12T13:20:59.947Z,10.20
2023-01-12T13:23:52.894Z,10.20
2023-01-12T13:26:39.128Z,10.30
2023-01-12T13:29:39.121Z,10.40
2023-01-12T13:32:32.993Z,10.40
2023-01-12T13:35:02.269Z,10.40
2023-01-12T13:37:40.808Z,10.30
2023-01-12T13:40:19.736Z,10.40
2023-01-12T13:43:08.718Z,10.40
2023-01-12T13:45:38.566Z,10.40
2023-01-12T13:48:08.838Z,10.30
2023-01-12T13:50:39.159Z,10.30
2023-01-12T13:53:23.097Z,10.30
2023-01-12T13:56:01.625Z,10.30
2023-01-12T13:58:38.935Z,10.20
2023-01-12T14:01:18.113Z,10.30
2023-01-12T14:04:05.634Z,10.30
2023-01-12T14:06:43.181Z,10.20
2023-01-12T14:09:22.794Z,10.20
2023-01-12T14:12:30.941Z,10.20
2023-01-12T14:15:41.107Z,10.10
2023-01-12T14:18:14.322Z,10.10
2023-01-12T14:20:46.940Z,10.00
2023-01-12T14:23:19.710Z,10.00
2023-01-12T14:26:04.210Z,9.90
2023-01-12T14:28:35.507Z,9.80
2023-01-12T14:31:07.556Z,9.70
2023-01-12T14:33:39.195Z,9.70
2023-01-12T14:36:13.665Z,9.60
2023-01-12T14:38:45.604Z,9.60
2023-01-12T14:41:34.882Z,9.60
2023-01-12T14:44:23.644Z,9.50
2023-01-12T14:46:56.160Z,9.40
2023-01-12T14:49:29.823Z,9.40
2023-01-12T14:52:00.738Z,9.30
2023-01-12T14:54:31.837Z,9.30
2023-01-12T14:57:03.421Z,9.30
2023-01-12T14:59:36.697Z,9.20
2023-01-12T15:02:37.568Z,9.20
2023-01-12T15:05:20.656Z,9.20
2023-01-12T15:07:58.920Z,9.00
2023-01-12T15:10:35.524Z,9.00
2023-01-12T15:13:26.753Z,8.90
2023-01-12T15:16:12.236Z,8.90
2023-01-12T15:18:59.377Z,8.90
2023-01-12T15:21:46.729Z,8.80
2023-01-12T15:24:41.228Z,8.80
2023-01-12T15:27:12.459Z,8.80
2023-01-12T15:29:41.831Z,8.70
2023-01-12T15:32:17.184Z,8.70
2023-01-12T15:34:46.344Z,8.60
2023-01-12T15:37:18.776Z,8.70
2023-01-12T15:39:48.692Z,8.60
2023-01-12T15:42:22.145Z,8.50
2023-01-12T15:44:54.397Z,8.50
2023-01-12T15:47:25.303Z,8.40
2023-01-12T15:49:54.836Z,8.30
2023-01-12T15:52:26.549Z,8.30
2023-01-12T15:54:56.146Z,8.30
2023-01-12T15:57:25.365Z,8.30
2023-01-12T15:59:54.645Z,8.30
2023-01-12T16:02:34.810Z,8.20
2023-01-12T16:05:04.317Z,8.20
2023-01-12T16:07:33.614Z,8.10
2023-01-12T16:10:03.093Z,8.10
2023-01-12T16:12:32.504Z,8.00
2023-01-12T16:15:01.897Z,8.00
2023-01-12T16:17:34.757Z,7.90
2023-01-12T16:20:04.338Z,7.80
2023-01-12T16:22:33.884Z,7.90
2023-01-12T16:25:03.290Z,7.90
2023-01-12T16:27:32.790Z,8.00
2023-01-12T16:30:02.159Z,7.90
2023-01-12T16:32:31.443Z,7.90
2023-01-12T16:35:02.178Z,8.00
2023-01-12T16:37:33.551Z,7.90
2023-01-12T16:40:02.989Z,7.70
2023-01-12T16:42:32.360Z,7.70
2023-01-12T16:45:01.644Z,7.70
2023-01-12T16:47:30.837Z,7.60
2023-01-12T16:50:01.708Z,7.60
2023-01-12T16:52:31.026Z,7.60
2023-01-12T16:55:00.465Z,7.60
2023-01-12T16:57:29.706Z,7.50
2023-01-12T16:59:58.957Z,7.50
2023-01-12T17:02:29.599Z,7.50
2023-01-12T17:04:59.072Z,7.30
2023-01-12T17:07:30.246Z,7.30
2023-01-12T17:10:00.848Z,7.40
2023-01-12T17:12:30.316Z,7.30
2023-01-12T17:15:00.309Z,7.30
2023-01-12T17:17:29.883Z,7.30
2023-01-12T17:19:59.845Z,7.30
2023-01-12T17:22:32.221Z,7.20
2023-01-12T17:25:01.505Z,7.20
2023-01-12T17:27:30.697Z,7.20
2023-01-12T17:29:59.957Z,7.20
2023-01-12T17:32:29.311Z,7.10
2023-01-12T17:34:58.556Z,7.10
2023-01-12T17:37:29.003Z,7.10
2023-01-12T17:40:00.004Z,7.20
2023-01-12T17:42:46.532Z,7.10
2023-01-12T17:45:15.831Z,7.00
2023-01-12T17:47:45.237Z,7.00
2023-01-12T17:50:14.828Z,7.10
2023-01-12T17:52:44.091Z,7.10
2023-01-12T17:55:16.104Z,7.10
2023-01-12T17:57:51.558Z,7.00
2023-01-12T18:00:21.607Z,7.00
2023-01-12T18:02:52.015Z,7.00
2023-01-12T18:05:21.436Z,7.00
2023-01-12T18:07:50.832Z,7.00
2023-01-12T18:10:22.304Z,7.00
2023-01-12T18:12:51.792Z,7.00
2023-01-12T18:15:21.538Z,7.00
2023-01-12T18:17:51.019Z,6.90
2023-01-12T18:20:20.474Z,7.00
2023-01-12T18:22:50.186Z,7.00
2023-01-12T18:25:21.148Z,7.00
2023-01-12T18:27:51.088Z,7.00
2023-01-12T18:30:21.009Z,7.10
2023-01-12T18:32:50.380Z,7.00
2023-01-12T18:35:20.345Z,7.00
2023-01-12T18:37:50.464Z,7.10
2023-01-12T18:40:22.062Z,7.00
2023-01-12T18:42:50.857Z,7.10
2023-01-12T18:45:21.564Z,7.10
2023-01-12T18:48:12.386Z,7.10
2023-01-12T18:51:01.315Z,7.10
2023-01-12T18:53:34.564Z,7.10
2023-01-12T18:56:07.788Z,7.10
2023-01-12T18:58:41.629Z,7.10
2023-01-12T19:01:14.095Z,7.10
2023-01-12T19:03:44.666Z,7.00
2023-01-12T19:06:41.904Z,7.00
2023-01-12T19:09:31.404Z,7.00
2023-01-12T19:12:05.515Z,7.10
2023-01-12T19:14:54.267Z,7.00
2023-01-12T19:17:30.621Z,7.00
2023-01-12T19:20:05.918Z,7.00
2023-01-12T19:23:10.933Z,7.10
2023-01-12T19:26:07.664Z,7.10
2023-01-12T19:28:40.988Z,7.00
2023-01-12T19:31:15.336Z,7.00
2023-01-12T19:33:48.026Z,7.00
2023-01-12T19:36:18.887Z,7.00
2023-01-12T19:38:53.123Z,7.00
2023-01-12T19:41:37.903Z,7.00
2023-01-12T19:44:09.833Z,7.00
2023-01-12T19:46:40.500Z,7.00
2023-01-12T19:49:11.623Z,7.00
2023-01-12T19:51:42.113Z,7.00
2023-01-12T19:54:13.194Z,7.00
2023-01-12T19:56:43.594Z,7.00
2023-01-12T19:59:18.340Z,7.10
2023-01-12T20:01:52.935Z,7.10
2023-01-12T20:04:26.457Z,7.10
2023-01-12T20:06:57.468Z,7.10
2023-01-12T20:09:29.247Z,7.20
2023-01-12T20:11:59.759Z,7.10
2023-01-12T20:14:33.409Z,7.20
2023-01-12T20:17:05.941Z,7.20
2023-01-12T20:19:36.821Z,7.30
2023-01-12T20:22:08.143Z,7.30
2023-01-12T20:24:38.856Z,7.30
2023-01-12T20:27:10.267Z,7.30
2023-01-12T20:29:42.546Z,7.30
2023-01-12T20:32:14.844Z,7.20
2023-01-12T20:34:45.290Z,7.30
2023-01-12T20:37:15.062Z,7.40
2023-01-12T20:39:45.135Z,7.40
2023-01-12T20:42:15.911Z,7.40
2023-01-12T20:44:47.663Z,7.40
2023-01-12T20:47:19.930Z,7.40
2023-01-12T20:49:50.525Z,7.40
2023-01-12T20:52:20.967Z,7.50
2023-01-12T20:54:51.263Z,7.40
2023-01-12T20:57:22.153Z,7.50
2023-01-12T20:59:55.124Z,7.50
2023-01-12T21:02:26.740Z,7.50
2023-01-12T21:04:56.436Z,7.50
2023-01-12T21:07:27.458Z,7.50
2023-01-12T21:09:57.474Z,7.50
2023-01-12T21:12:27.870Z,7.60
2023-01-12T21:14:59.101Z,7.50
2023-01-12T21:17:28.839Z,7.50
2023-01-12T21:19:58.132Z,7.50
2023-01-12T21:22:27.594Z,7.60
2023-01-12T21:24:58.796Z,7.60
2023-01-12T21:27:28.242Z,7.60
2023-01-12T21:29:59.095Z,7.60
2023-01-12T21:32:31.392Z,7.60
2023-01-12T21:35:00.647Z,7.60
2023-01-12T21:37:30.348Z,7.70
2023-01-12T21:40:00.516Z,7.70
2023-01-12T21:42:47.380Z,7.70
2023-01-12T21:45:19.015Z,7.70
2023-01-12T21:47:48.988Z,7.80
2023-01-12T21:50:18.840Z,7.80
2023-01-12T21:52:48.809Z,7.80
2023-01-12T21:55:19.731Z,7.80
2023-01-12T21:57:49.331Z,7.80
2023-01-12T22:00:21.077Z,7.80
2023-01-12T22:02:51.725Z,7.80
2023-01-12T22:05:21.765Z,7.80
2023-01-12T22:07:51.534Z,7.80
2023-01-12T22:10:22.166Z,7.80
2023-01-12T22:12:54.378Z,7.80
2023-01-12T22:15:26.482Z,7.80
2023-01-12T22:17:56.169Z,7.90
2023-01-12T22:20:25.927Z,7.80
2023-01-12T22:22:55.612Z,7.90
2023-01-12T22:25:24.863Z,7.80
2023-01-12T22:27:54.086Z,7.90
2023-01-12T22:30:25.753Z,8.00
2023-01-12T22:32:56.250Z,7.90
2023-01-12T22:35:26.849Z,7.90
2023-01-12T22:37:56.046Z,7.90
2023-01-12T22:40:25.462Z,7.90
2023-01-12T22:43:12.437Z,7.90
2023-01-12T22:45:43.393Z,7.90
2023-01-12T22:48:12.946Z,7.90
2023-01-12T22:50:42.352Z,7.90
2023-01-12T22:53:11.787Z,7.80
2023-01-12T22:55:41.942Z,7.90
2023-01-12T22:58:11.225Z,7.90
2023-01-12T23:00:40.655Z,7.90
2023-01-12T23:03:12.880Z,8.00
2023-01-12T23:05:47.971Z,7.90
2023-01-12T23:08:18.243Z,7.90
2023-01-12T23:10:47.514Z,7.80
2023-01-12T23:13:19.308Z,7.80
2023-01-12T23:15:50.513Z,7.80
2023-01-12T23:18:25.630Z,7.80
2023-01-12T23:20:55.532Z,7.80
2023-01-12T23:23:24.992Z,7.80
2023-01-12T23:25:54.385Z,7.80
2023-01-12T23:28:23.950Z,7.70
2023-01-12T23:30:53.372Z,7.70
2023-01-12T23:33:24.934Z,7.70
2023-01-12T23:35:54.236Z,7.80
2023-01-12T23:38:23.547Z,7.80
2023-01-12T23:40:52.865Z,7.70
2023-01-12T23:43:22.347Z,7.80
2023-01-12T23:45:51.769Z,7.80
2023-01-12T23:48:21.202Z,7.80
2023-01-12T23:50:52.363Z,7.80
2023-01-12T23:53:21.602Z,7.80
2023-01-12T23:55:51.024Z,7.80
2023-01-12T23:58:20.519Z,7.80
